Hastain, Missouri
Current Conditions -  °F | °C
As of 6:15 AM on Friday 19 Dec 2014 (Local Time) from KH21 Reporting Station
Haze Haze  
Wind Chill: 30°   Ceiling: 300
Heat Index: 34°   Visibility: 5mi
Dew Point: 34°   Wind: 5mph
Humidity: 100%   Direction: 70°ENE
Pressure: 30.23"   Gusts: NA
Location:  38.1656°N, 93.1481°W
Report Text: KH21 191215Z AUTO 07004KT 5SM BR OVC003 01/01 A3023 RMK AO2
Loading
Personal Weather Stations






























Interactive Weather Map New forecast layout! Learn more

10-Day Weather Forecast

Advertisements
Track Severe Weather on mobile